Time;durP1;ratioP1;P1;durP2;ratioP2;P2;SDS_P1;SDS_P2;PMS_P1;PMS_P2;Temp;Humidity;BMP_temperature;BMP_pressure;BME280_temperature;BME280_humidity;BME280_pressure;Samples;Min_cycle;Max_cycle;Signal;HPM_P1;HPM_P2
2023/03/30 00:01:19;;;;;;;;;;;;;;;;;;5093331;28;20026;-74
2023/03/30 00:03:44;;;;;;;;;;;;;;;;;;5093535;28;19912;-74
2023/03/30 00:06:09;;;;;;;;;;;;;;;;;;5093238;28;20271;-75
2023/03/30 00:08:34;;;;;;;;;;;;;;;;;;5093372;28;20457;-74
2023/03/30 00:11:00;;;;;;;;;;;;;;;;;;5075248;28;19915;-75
2023/03/30 00:13:25;;;;;;;;;;;;;;;;;;5093196;28;20006;-74
2023/03/30 00:15:50;;;;;;;;;;;;;;;;;;5093199;28;19915;-75
2023/03/30 00:18:16;;;;;;;;;;;;;;;;;;5075095;28;19966;-75
2023/03/30 00:20:41;;;;;;;;;;;;;;;;;;5093139;28;20279;-74
2023/03/30 00:23:07;;;;;;;;;;;;;;;;;;5093085;28;20008;-74
2023/03/30 00:25:32;;;;;;;;;;;;;;;;;;5093025;28;19912;-74
2023/03/30 00:27:57;;;;;;;;;;;;;;;;;;5093074;28;19923;-74
2023/03/30 00:30:22;;;;;;;;;;;;;;;;;;5074771;28;19998;-73
2023/03/30 00:32:48;;;;;;;;;;;;;;;;;;5092913;28;20015;-74
2023/03/30 00:35:16;;;;;;;;;;;;;;;;;;5093014;28;20322;-74
2023/03/30 00:37:44;;;;;;;;;;;;;;;;;;5092871;28;19916;-73
2023/03/30 00:40:10;;;;;;;;;;;;;;;;;;5074772;28;19919;-73
2023/03/30 00:42:35;;;;;;;;;;;;;;;;;;5093019;28;19920;-74
2023/03/30 00:45:01;;;;;;;;;;;;;;;;;;5074646;28;20425;-73
2023/03/30 00:47:26;;;;;;;;;;;;;;;;;;5074454;28;19927;-75
2023/03/30 00:49:51;;;;;;;;;;;;;;;;;;5074755;28;19991;-74
2023/03/30 00:52:18;;;;;;;;;;;;;;;;;;5092786;28;19912;-74
2023/03/30 00:54:43;;;;;;;;;;;;;;;;;;5092688;28;19916;-74
2023/03/30 00:57:08;;;;;;;;;;;;;;;;;;5092806;28;19965;-72
2023/03/30 00:59:33;;;;;;;;;;;;;;;;;;5092697;28;19912;-73
2023/03/30 01:01:59;;;;;;;;;;;;;;;;;;5092968;28;20411;-73
2023/03/30 01:04:24;;;;;;;;;;;;;;;;;;5075389;28;19912;-73
2023/03/30 01:06:51;;;;;;;;;;;;;;;;;;5093272;28;20054;-73
2023/03/30 01:09:16;;;;;;;;;;;;;;;;;;5074546;28;19912;-73
2023/03/30 01:11:41;;;;;;;;;;;;;;;;;;5092841;28;20015;-73
2023/03/30 01:14:06;;;;;;;;;;;;;;;;;;5074380;28;20363;-72
2023/03/30 01:16:31;;;;;;;;;;;;;;;;;;5092371;28;19908;-73
2023/03/30 01:18:57;;;;;;;;;;;;;;;;;;5070123;28;19912;-73
2023/03/30 01:21:22;;;;;;;;;;;;;;;;;;5056365;28;20015;-73
2023/03/30 01:23:48;;;;;;;;;;;;;;;;;;5092504;28;19912;-73
2023/03/30 01:26:15;;;;;;;;;;;;;;;;;;5092039;28;20371;-74
2023/03/30 01:28:40;;;;;;;;;;;;;;;;;;5092463;28;19960;-73
2023/03/30 01:31:06;;;;;;;;;;;;;;;;;;5058033;28;20376;-73
2023/03/30 01:33:31;;;;;;;;;;;;;;;;;;5054262;28;19981;-72
2023/03/30 01:35:57;;;;;;;;;;;;;;;;;;5087463;28;19919;-73
2023/03/30 01:38:22;;;;;;;;;;;;;;;;;;5091312;28;19999;-72
2023/03/30 01:40:47;;;;;;;;;;;;;;;;;;5079336;28;19961;-72
2023/03/30 01:43:13;;;;;;;;;;;;;;;;;;5059925;28;19917;-73
2023/03/30 01:45:38;;;;;;;;;;;;;;;;;;5056919;28;19913;-74
2023/03/30 01:48:03;;;;;;;;;;;;;;;;;;5057284;28;19916;-74
2023/03/30 01:50:28;;;;;;;;;;;;;;;;;;5057291;28;19920;-74
2023/03/30 01:52:54;;;;;;;;;;;;;;;;;;5075306;28;20007;-75
2023/03/30 01:55:19;;;;;;;;;;;;;;;;;;5092911;28;19912;-74
2023/03/30 01:57:45;;;;;;;;;;;;;;;;;;5095427;28;20008;-74
2023/03/30 02:00:12;;;;;;;;;;;;;;;;;;5077199;28;19912;-74
2023/03/30 02:02:38;;;;;;;;;;;;;;;;;;5095449;28;19912;-74
2023/03/30 02:05:04;;;;;;;;;;;;;;;;;;5095405;28;19912;-73
2023/03/30 02:07:30;;;;;;;;;;;;;;;;;;5095283;28;19985;-74
2023/03/30 02:09:56;;;;;;;;;;;;;;;;;;5095284;28;20367;-74
2023/03/30 02:12:21;;;;;;;;;;;;;;;;;;5094122;28;19974;-74
2023/03/30 02:14:46;;;;;;;;;;;;;;;;;;5060309;28;19974;-74
2023/03/30 02:17:12;;;;;;;;;;;;;;;;;;5060071;28;19969;-74
2023/03/30 02:19:37;;;;;;;;;;;;;;;;;;5094972;28;19942;-74
2023/03/30 02:22:03;;;;;;;;;;;;;;;;;;5095069;28;19916;-74
2023/03/30 02:24:30;;;;;;;;;;;;;;;;;;5093657;28;19919;-74
2023/03/30 02:26:55;;;;;;;;;;;;;;;;;;5076687;28;19923;-73
2023/03/30 02:29:23;;;;;;;;;;;;;;;;;;5095161;28;19920;-75
2023/03/30 02:31:49;;;;;;;;;;;;;;;;;;5076630;28;19915;-74
2023/03/30 02:34:14;;;;;;;;;;;;;;;;;;5076820;28;20288;-74
2023/03/30 02:36:39;;;;;;;;;;;;;;;;;;5094768;28;20291;-75
2023/03/30 02:39:05;;;;;;;;;;;;;;;;;;5076727;28;19908;-74
2023/03/30 02:41:30;;;;;;;;;;;;;;;;;;5076632;28;19918;-76
2023/03/30 02:43:55;;;;;;;;;;;;;;;;;;5076481;28;19912;-76
2023/03/30 02:46:21;;;;;;;;;;;;;;;;;;5076280;28;20399;-76
2023/03/30 02:48:46;;;;;;;;;;;;;;;;;;5076533;28;19912;-78
2023/03/30 02:51:12;;;;;;;;;;;;;;;;;;5076527;28;19916;-79
2023/03/30 02:54:08;;;;;;;;;;;;;;;;;;5075859;28;19959;-76
2023/03/30 02:56:53;;;;;;;;;;;;;;;;;;5082500;28;19916;-73
2023/03/30 02:59:19;;;;;;;;;;;;;;;;;;5089550;28;19965;-74
2023/03/30 03:01:44;;;;;;;;;;;;;;;;;;5056176;28;19912;-74
2023/03/30 03:04:15;;;;;;;;;;;;;;;;;;5054159;28;19912;-74
2023/03/30 03:07:03;;;;;;;;;;;;;;;;;;5088695;28;20276;-76
2023/03/30 03:09:29;;;;;;;;;;;;;;;;;;5070796;28;19919;-75
2023/03/30 03:11:55;;;;;;;;;;;;;;;;;;5072014;28;19955;-75
2023/03/30 03:14:20;;;;;;;;;;;;;;;;;;5072347;28;19947;-74
2023/03/30 03:16:45;;;;;;;;;;;;;;;;;;5091423;28;19908;-74
2023/03/30 03:19:13;;;;;;;;;;;;;;;;;;5073368;28;20431;-74
2023/03/30 03:21:39;;;;;;;;;;;;;;;;;;5073946;28;19961;-75
2023/03/30 03:24:05;;;;;;;;;;;;;;;;;;5053849;28;19912;-74
2023/03/30 03:26:48;;;;;;;;;;;;;;;;;;5069990;28;19924;-75
2023/03/30 03:29:14;;;;;;;;;;;;;;;;;;5049839;28;19916;-75
2023/03/30 03:31:39;;;;;;;;;;;;;;;;;;5090235;28;19964;-75
2023/03/30 03:34:05;;;;;;;;;;;;;;;;;;5071974;28;19959;-75
2023/03/30 03:36:53;;;;;;;;;;;;;;;;;;5081763;28;19915;-74
2023/03/30 03:39:22;;;;;;;;;;;;;;;;;;5071900;28;20236;-75
2023/03/30 03:41:49;;;;;;;;;;;;;;;;;;5054699;28;19947;-75
2023/03/30 03:44:14;;;;;;;;;;;;;;;;;;5055240;28;19962;-75
2023/03/30 03:46:40;;;;;;;;;;;;;;;;;;5071708;28;19931;-75
2023/03/30 03:49:05;;;;;;;;;;;;;;;;;;5071395;28;19912;-75
2023/03/30 03:51:31;;;;;;;;;;;;;;;;;;5071463;28;19912;-75
2023/03/30 03:53:57;;;;;;;;;;;;;;;;;;5071048;28;20003;-74
2023/03/30 03:56:24;;;;;;;;;;;;;;;;;;5057268;28;20052;-75
2023/03/30 03:58:49;;;;;;;;;;;;;;;;;;5076637;28;20015;-74
2023/03/30 04:01:14;;;;;;;;;;;;;;;;;;5052320;28;20398;-74
2023/03/30 04:03:40;;;;;;;;;;;;;;;;;;5051120;28;19923;-73
2023/03/30 04:06:05;;;;;;;;;;;;;;;;;;5051274;28;19916;-74
2023/03/30 04:08:31;;;;;;;;;;;;;;;;;;5053921;28;20364;-74
2023/03/30 04:11:06;;;;;;;;;;;;;;;;;;5056096;28;19919;-74
2023/03/30 04:13:44;;;;;;;;;;;;;;;;;;5089667;28;19912;-74
2023/03/30 04:16:25;;;;;;;;;;;;;;;;;;5071406;28;19916;-74
2023/03/30 04:18:59;;;;;;;;;;;;;;;;;;5070452;28;19912;-75
2023/03/30 04:21:28;;;;;;;;;;;;;;;;;;5089321;28;19918;-74
2023/03/30 04:24:05;;;;;;;;;;;;;;;;;;5078472;28;20284;-75
2023/03/30 04:26:49;;;;;;;;;;;;;;;;;;5086440;28;19923;-75
2023/03/30 04:29:43;;;;;;;;;;;;;;;;;;5056933;28;19946;-74
2023/03/30 04:32:37;;;;;;;;;;;;;;;;;;5050736;28;20002;-74
2023/03/30 04:35:25;;;;;;;;;;;;;;;;;;5076745;28;19912;-74
2023/03/30 04:38:09;;;;;;;;;;;;;;;;;;5088993;28;19929;-74
2023/03/30 04:40:54;;;;;;;;;;;;;;;;;;5073852;28;19926;-74
2023/03/30 04:43:32;;;;;;;;;;;;;;;;;;5087387;28;19934;-74
2023/03/30 04:46:21;;;;;;;;;;;;;;;;;;5079211;28;20358;-74
2023/03/30 04:49:04;;;;;;;;;;;;;;;;;;5089438;28;19922;-74
2023/03/30 04:51:48;;;;;;;;;;;;;;;;;;5086551;28;20012;-75
2023/03/30 04:54:32;;;;;;;;;;;;;;;;;;5087641;28;20003;-75
2023/03/30 04:57:33;;;;;;;;;;;;;;;;;;5026435;28;19924;-74
2023/03/30 05:00:05;;;;;;;;;;;;;;;;;;5076840;28;20283;-74
2023/03/30 05:03:03;;;;;;;;;;;;;;;;;;5045357;28;19916;-75
2023/03/30 05:05:47;;;;;;;;;;;;;;;;;;5079335;28;20263;-75
2023/03/30 05:08:33;;;;;;;;;;;;;;;;;;5085433;28;20379;-75
2023/03/30 05:11:11;;;;;;;;;;;;;;;;;;5083320;28;19931;-76
2023/03/30 05:13:59;;;;;;;;;;;;;;;;;;5064013;28;20007;-74
2023/03/30 05:16:44;;;;;;;;;;;;;;;;;;5070437;28;19915;-75
2023/03/30 05:19:16;;;;;;;;;;;;;;;;;;5089462;28;19919;-75
2023/03/30 05:21:44;;;;;;;;;;;;;;;;;;5089945;28;19919;-75
2023/03/30 05:24:25;;;;;;;;;;;;;;;;;;5082199;28;20037;-73
2023/03/30 05:27:07;;;;;;;;;;;;;;;;;;5065629;28;19919;-74
2023/03/30 05:29:51;;;;;;;;;;;;;;;;;;5073602;28;19969;-74
2023/03/30 05:32:33;;;;;;;;;;;;;;;;;;5072547;28;20366;-76
2023/03/30 05:35:23;;;;;;;;;;;;;;;;;;5066194;28;19924;-73
2023/03/30 05:38:08;;;;;;;;;;;;;;;;;;5078056;28;19965;-73
2023/03/30 05:40:45;;;;;;;;;;;;;;;;;;5069235;28;19916;-74
2023/03/30 05:43:26;;;;;;;;;;;;;;;;;;5071406;28;19961;-75
2023/03/30 05:46:11;;;;;;;;;;;;;;;;;;5072755;28;20432;-75
2023/03/30 05:48:57;;;;;;;;;;;;;;;;;;5067326;28;20695;-74
2023/03/30 05:51:22;;;;;;;;;;;;;;;;;;5070246;28;19912;-74
2023/03/30 05:53:59;;;;;;;;;;;;;;;;;;5065662;28;20394;-74
2023/03/30 05:56:45;;;;;;;;;;;;;;;;;;5068979;28;20275;-74
2023/03/30 05:59:40;;;;;;;;;;;;;;;;;;5081568;28;19932;-77
2023/03/30 06:02:32;;;;;;;;;;;;;;;;;;5084475;28;20334;-75
2023/03/30 06:05:02;;;;;;;;;;;;;;;;;;5072419;28;19908;-75
2023/03/30 06:07:28;;;;;;;;;;;;;;;;;;5071254;28;20245;-75
2023/03/30 06:09:53;;;;;;;;;;;;;;;;;;5049550;28;19920;-74
2023/03/30 06:12:23;;;;;;;;;;;;;;;;;;5064937;28;19912;-75
2023/03/30 06:14:48;;;;;;;;;;;;;;;;;;5068652;28;19926;-74
2023/03/30 06:17:24;;;;;;;;;;;;;;;;;;5070502;28;19962;-74
2023/03/30 06:19:50;;;;;;;;;;;;;;;;;;5068726;28;19947;-75
2023/03/30 06:22:15;;;;;;;;;;;;;;;;;;5068131;28;19916;-76
2023/03/30 06:25:12;;;;;;;;;;;;;;;;;;5062786;28;19912;-76
2023/03/30 06:27:38;;;;;;;;;;;;;;;;;;5063042;28;20287;-76
2023/03/30 06:30:04;;;;;;;;;;;;;;;;;;5062550;28;19919;-76
2023/03/30 06:32:29;;;;;;;;;;;;;;;;;;5044766;28;19920;-76
2023/03/30 06:35:14;;;;;;;;;;;;;;;;;;5082347;28;20508;-75
2023/03/30 06:37:39;;;;;;;;;;;;;;;;;;5069677;28;20359;-76
2023/03/30 06:40:14;;;;;;;;;;;;;;;;;;5070322;28;19922;-76
2023/03/30 06:42:43;;;;;;;;;;;;;;;;;;5071470;28;20007;-76
2023/03/30 06:45:20;;;;;;;;;;;;;;;;;;5069688;28;20359;-76
2023/03/30 06:47:46;;;;;;;;;;;;;;;;;;5071061;28;19923;-76
2023/03/30 06:50:13;;;;;;;;;;;;;;;;;;5066440;28;19962;-75
2023/03/30 06:53:00;;;;;;;;;;;;;;;;;;5071835;28;19954;-76
2023/03/30 06:55:31;;;;;;;;;;;;;;;;;;5071184;28;19923;-76
2023/03/30 06:57:56;;;;;;;;;;;;;;;;;;5068840;28;19917;-75
2023/03/30 07:00:21;;;;;;;;;;;;;;;;;;5066827;28;19922;-77
2023/03/30 07:03:05;;;;;;;;;;;;;;;;;;5080139;28;19959;-77
2023/03/30 07:05:41;;;;;;;;;;;;;;;;;;5070954;28;19912;-77
2023/03/30 07:08:13;;;;;;;;;;;;;;;;;;5060545;28;19927;-77
2023/03/30 07:10:44;;;;;;;;;;;;;;;;;;5062752;28;19916;-76
2023/03/30 07:13:11;;;;;;;;;;;;;;;;;;5044783;28;20277;-75
2023/03/30 07:15:39;;;;;;;;;;;;;;;;;;5064790;28;20311;-76
2023/03/30 07:18:04;;;;;;;;;;;;;;;;;;5088855;28;20026;-75
2023/03/30 07:20:29;;;;;;;;;;;;;;;;;;5069262;28;19912;-75
2023/03/30 07:23:12;;;;;;;;;;;;;;;;;;5070708;28;19918;-76
2023/03/30 07:25:38;;;;;;;;;;;;;;;;;;5089672;28;20011;-76
2023/03/30 07:28:10;;;;;;;;;;;;;;;;;;5071549;28;19939;-76
2023/03/30 07:30:36;;;;;;;;;;;;;;;;;;5071290;28;19912;-76
2023/03/30 07:33:04;;;;;;;;;;;;;;;;;;5055171;28;19912;-76
2023/03/30 07:35:29;;;;;;;;;;;;;;;;;;5071267;28;19919;-76
2023/03/30 07:37:56;;;;;;;;;;;;;;;;;;5071190;28;19958;-75
2023/03/30 07:40:21;;;;;;;;;;;;;;;;;;5087764;28;20291;-74
2023/03/30 07:42:47;;;;;;;;;;;;;;;;;;5070373;28;19956;-75
2023/03/30 07:45:12;;;;;;;;;;;;;;;;;;5069920;28;19908;-76
2023/03/30 07:47:37;;;;;;;;;;;;;;;;;;5052079;28;19920;-75
2023/03/30 07:50:03;;;;;;;;;;;;;;;;;;5051984;28;19916;-76
2023/03/30 07:52:28;;;;;;;;;;;;;;;;;;5034671;28;20003;-75
2023/03/30 07:54:58;;;;;;;;;;;;;;;;;;5055268;28;19923;-77
2023/03/30 07:57:30;;;;;;;;;;;;;;;;;;5088860;28;19958;-76
2023/03/30 07:59:56;;;;;;;;;;;;;;;;;;5054249;28;20000;-75
2023/03/30 08:02:41;;;;;;;;;;;;;;;;;;5071660;28;20019;-76
2023/03/30 08:05:10;;;;;;;;;;;;;;;;;;5053733;28;19908;-74
2023/03/30 08:07:50;;;;;;;;;;;;;;;;;;5069057;28;19969;-75
2023/03/30 08:10:22;;;;;;;;;;;;;;;;;;5054939;28;19912;-78
2023/03/30 08:12:47;;;;;;;;;;;;;;;;;;5072568;28;19912;-75
2023/03/30 08:15:12;;;;;;;;;;;;;;;;;;5071244;28;20268;-76
2023/03/30 08:17:37;;;;;;;;;;;;;;;;;;5088891;28;19912;-75
2023/03/30 08:20:06;;;;;;;;;;;;;;;;;;5086230;28;19962;-75
2023/03/30 08:22:32;;;;;;;;;;;;;;;;;;5087825;28;19919;-78
2023/03/30 08:24:57;;;;;;;;;;;;;;;;;;5088676;28;20360;-78
2023/03/30 08:27:23;;;;;;;;;;;;;;;;;;5070820;28;19930;-76
2023/03/30 08:29:49;;;;;;;;;;;;;;;;;;5089272;28;20414;-75
2023/03/30 08:32:15;;;;;;;;;;;;;;;;;;5088818;28;19912;-76
2023/03/30 08:34:40;;;;;;;;;;;;;;;;;;5088636;28;19931;-72
2023/03/30 08:37:06;;;;;;;;;;;;;;;;;;5070314;28;20018;-72
2023/03/30 08:39:32;;;;;;;;;;;;;;;;;;5070344;28;20023;-72
2023/03/30 08:41:57;;;;;;;;;;;;;;;;;;5069860;28;20413;-71
2023/03/30 08:44:22;;;;;;;;;;;;;;;;;;5087854;28;19916;-72
2023/03/30 08:46:47;;;;;;;;;;;;;;;;;;5087254;28;19927;-71
2023/03/30 08:49:13;;;;;;;;;;;;;;;;;;5086579;28;19916;-73
2023/03/30 08:51:38;;;;;;;;;;;;;;;;;;5086750;28;19912;-72
2023/03/30 08:54:07;;;;;;;;;;;;;;;;;;5067397;28;20259;-72
2023/03/30 08:56:32;;;;;;;;;;;;;;;;;;5083969;28;19916;-73
2023/03/30 08:58:58;;;;;;;;;;;;;;;;;;5081236;28;20359;-72
2023/03/30 09:01:23;;;;;;;;;;;;;;;;;;5081940;28;19933;-72
2023/03/30 09:03:49;;;;;;;;;;;;;;;;;;5092197;28;19912;-71
2023/03/30 09:06:14;;;;;;;;;;;;;;;;;;5083460;28;20029;-73
2023/03/30 09:08:39;;;;;;;;;;;;;;;;;;5082658;28;19912;-74
2023/03/30 09:11:05;;;;;;;;;;;;;;;;;;5081590;28;19923;-72
2023/03/30 09:13:31;;;;;;;;;;;;;;;;;;5063192;28;20880;-72
2023/03/30 09:15:56;;;;;;;;;;;;;;;;;;5079015;28;20398;-73
2023/03/30 09:18:22;;;;;;;;;;;;;;;;;;5085789;28;20371;-73
2023/03/30 09:20:47;;;;;;;;;;;;;;;;;;5087798;28;19916;-73
2023/03/30 09:23:12;;;;;;;;;;;;;;;;;;5086731;28;19961;-73
2023/03/30 09:25:37;;;;;;;;;;;;;;;;;;5088039;28;19950;-72
2023/03/30 09:28:03;;;;;;;;;;;;;;;;;;5054804;28;20006;-72
2023/03/30 09:30:28;;;;;;;;;;;;;;;;;;5089236;28;20360;-73
2023/03/30 09:32:53;;;;;;;;;;;;;;;;;;5088808;28;20325;-72
2023/03/30 09:35:19;;;;;;;;;;;;;;;;;;5089321;28;19911;-73
2023/03/30 09:37:45;;;;;;;;;;;;;;;;;;5071393;28;19919;-73
2023/03/30 09:40:10;;;;;;;;;;;;;;;;;;5087948;28;20371;-73
2023/03/30 09:42:36;;;;;;;;;;;;;;;;;;5089687;28;19939;-73
2023/03/30 09:48:10;;;;;;;;;;;;;;;;;;5085336;28;19985;-72
2023/03/30 09:50:35;;;;;;;;;;;;;;;;;;5087624;28;20462;-73
2023/03/30 09:53:01;;;;;;;;;;;;;;;;;;5083055;28;19958;-72
2023/03/30 09:55:26;;;;;;;;;;;;;;;;;;5057233;28;19909;-72
2023/03/30 09:57:52;;;;;;;;;;;;;;;;;;5075949;28;19951;-72
2023/03/30 10:00:17;;;;;;;;;;;;;;;;;;5084707;28;19973;-73
2023/03/30 10:02:42;;;;;;;;;;;;;;;;;;5064166;28;20399;-72
2023/03/30 10:05:07;;;;;;;;;;;;;;;;;;5087717;28;19930;-72
2023/03/30 10:07:33;;;;;;;;;;;;;;;;;;5072530;28;19960;-71
2023/03/30 10:09:58;;;;;;;;;;;;;;;;;;5071366;28;19912;-71
2023/03/30 10:12:23;;;;;;;;;;;;;;;;;;5077371;28;19977;-72
2023/03/30 10:14:48;;;;;;;;;;;;;;;;;;5080236;28;19915;-71
2023/03/30 10:17:14;;;;;;;;;;;;;;;;;;5066185;28;19927;-71
2023/03/30 10:19:39;;;;;;;;;;;;;;;;;;5075963;28;19916;-72
2023/03/30 10:22:05;;;;;;;;;;;;;;;;;;5072063;28;19912;-72
2023/03/30 10:24:30;;;;;;;;;;;;;;;;;;5084668;28;19925;-72
2023/03/30 10:26:56;;;;;;;;;;;;;;;;;;5081727;28;20770;-73
2023/03/30 10:29:21;;;;;;;;;;;;;;;;;;5085501;28;20600;-72
2023/03/30 10:31:47;;;;;;;;;;;;;;;;;;5078309;28;19955;-71
2023/03/30 10:34:12;;;;;;;;;;;;;;;;;;5088032;28;19916;-71
2023/03/30 10:36:37;;;;;;;;;;;;;;;;;;5084532;28;20061;-72
2023/03/30 10:39:02;;;;;;;;;;;;;;;;;;5086687;28;19920;-71
2023/03/30 10:41:28;;;;;;;;;;;;;;;;;;5068936;28;19915;-73
2023/03/30 10:43:53;;;;;;;;;;;;;;;;;;5087368;28;19938;-71
2023/03/30 10:46:18;;;;;;;;;;;;;;;;;;5086919;28;19916;-71
2023/03/30 10:48:43;;;;;;;;;;;;;;;;;;5086574;28;19923;-71
2023/03/30 10:51:09;;;;;;;;;;;;;;;;;;5088850;28;20006;-71
2023/03/30 10:53:34;;;;;;;;;;;;;;;;;;5086720;28;20295;-71
2023/03/30 10:56:00;;;;;;;;;;;;;;;;;;5088201;28;19950;-72
2023/03/30 10:58:26;;;;;;;;;;;;;;;;;;5081008;28;20002;-72
2023/03/30 11:00:51;;;;;;;;;;;;;;;;;;5082430;28;19965;-72
2023/03/30 11:03:16;;;;;;;;;;;;;;;;;;5087513;28;19999;-72
2023/03/30 11:05:42;;;;;;;;;;;;;;;;;;5088800;28;19942;-72
2023/03/30 11:08:07;;;;;;;;;;;;;;;;;;5088318;28;20031;-72
2023/03/30 11:10:32;;;;;;;;;;;;;;;;;;5089944;28;19963;-71
2023/03/30 11:12:57;;;;;;;;;;;;;;;;;;5089787;28;19918;-71
2023/03/30 11:15:25;;;;;;;;;;;;;;;;;;5089680;28;20394;-71
2023/03/30 11:17:50;;;;;;;;;;;;;;;;;;5088325;28;19908;-72
2023/03/30 11:20:15;;;;;;;;;;;;;;;;;;5088501;28;19934;-71
2023/03/30 11:22:41;;;;;;;;;;;;;;;;;;5089358;28;19923;-71
2023/03/30 11:25:06;;;;;;;;;;;;;;;;;;5089459;28;20359;-71
2023/03/30 11:27:31;;;;;;;;;;;;;;;;;;5070173;28;19946;-71
2023/03/30 11:29:56;;;;;;;;;;;;;;;;;;5086176;28;20440;-73
2023/03/30 11:32:22;;;;;;;;;;;;;;;;;;5086902;28;19912;-71
2023/03/30 11:34:47;;;;;;;;;;;;;;;;;;5089970;28;19962;-71
2023/03/30 11:37:12;;;;;;;;;;;;;;;;;;5089456;28;19912;-70
2023/03/30 11:39:37;;;;;;;;;;;;;;;;;;5089047;28;20291;-71
2023/03/30 11:42:03;;;;;;;;;;;;;;;;;;5089881;28;19916;-70
2023/03/30 11:44:28;;;;;;;;;;;;;;;;;;5071339;28;19912;-70
2023/03/30 11:46:53;;;;;;;;;;;;;;;;;;5089310;28;19919;-71
2023/03/30 11:49:19;;;;;;;;;;;;;;;;;;5088733;28;19919;-70
2023/03/30 11:51:44;;;;;;;;;;;;;;;;;;5081111;28;20505;-71
2023/03/30 11:54:10;;;;;;;;;;;;;;;;;;5081517;28;19916;-70
2023/03/30 11:56:35;;;;;;;;;;;;;;;;;;5079816;28;20002;-72
2023/03/30 11:59:03;;;;;;;;;;;;;;;;;;5067276;28;19911;-72
2023/03/30 12:01:28;;;;;;;;;;;;;;;;;;5084868;28;20662;-71
2023/03/30 12:03:53;;;;;;;;;;;;;;;;;;5076716;28;19943;-71
2023/03/30 12:06:19;;;;;;;;;;;;;;;;;;5086079;28;20838;-71
2023/03/30 12:08:44;;;;;;;;;;;;;;;;;;5071709;28;19917;-71
2023/03/30 12:11:10;;;;;;;;;;;;;;;;;;5086654;28;19973;-71
2023/03/30 12:13:35;;;;;;;;;;;;;;;;;;5076498;28;19916;-72
2023/03/30 12:16:01;;;;;;;;;;;;;;;;;;5088656;28;20358;-70
2023/03/30 12:18:26;;;;;;;;;;;;;;;;;;5089314;28;19919;-72
2023/03/30 12:20:51;;;;;;;;;;;;;;;;;;5070389;28;19957;-71
2023/03/30 12:23:16;;;;;;;;;;;;;;;;;;5088536;28;19912;-71
2023/03/30 12:25:42;;;;;;;;;;;;;;;;;;5088652;28;20358;-71
2023/03/30 12:28:07;;;;;;;;;;;;;;;;;;5088783;28;19920;-72
2023/03/30 12:30:34;;;;;;;;;;;;;;;;;;5088851;28;19922;-71
2023/03/30 12:32:59;;;;;;;;;;;;;;;;;;5088701;28;19922;-72
2023/03/30 12:35:25;;;;;;;;;;;;;;;;;;5082176;28;20178;-71
2023/03/30 12:37:51;;;;;;;;;;;;;;;;;;5051101;28;19920;-72
2023/03/30 12:40:17;;;;;;;;;;;;;;;;;;5068210;28;19908;-71
2023/03/30 12:42:45;;;;;;;;;;;;;;;;;;5050426;28;20014;-72
2023/03/30 12:45:11;;;;;;;;;;;;;;;;;;5068441;28;19912;-71
2023/03/30 12:47:37;;;;;;;;;;;;;;;;;;5068343;28;19923;-71
2023/03/30 12:50:02;;;;;;;;;;;;;;;;;;5081279;28;19915;-71
2023/03/30 12:52:27;;;;;;;;;;;;;;;;;;5086581;28;19919;-71
2023/03/30 12:54:52;;;;;;;;;;;;;;;;;;5084070;28;20661;-72
2023/03/30 12:57:21;;;;;;;;;;;;;;;;;;5067109;28;19916;-73
2023/03/30 12:59:46;;;;;;;;;;;;;;;;;;5071412;28;20267;-72
2023/03/30 13:02:12;;;;;;;;;;;;;;;;;;5051953;28;20279;-73
2023/03/30 13:04:37;;;;;;;;;;;;;;;;;;5086497;28;19916;-73
2023/03/30 13:07:02;;;;;;;;;;;;;;;;;;5085392;28;19931;-71
2023/03/30 13:09:28;;;;;;;;;;;;;;;;;;5080959;28;19920;-73
2023/03/30 13:11:54;;;;;;;;;;;;;;;;;;5067664;28;20444;-72
2023/03/30 13:14:19;;;;;;;;;;;;;;;;;;5080693;28;19963;-71
2023/03/30 13:16:45;;;;;;;;;;;;;;;;;;5065959;28;19916;-74
2023/03/30 13:19:10;;;;;;;;;;;;;;;;;;5075528;28;19922;-72
2023/03/30 13:21:36;;;;;;;;;;;;;;;;;;5083558;28;20349;-71
2023/03/30 13:24:01;;;;;;;;;;;;;;;;;;5084929;28;19927;-71
2023/03/30 13:26:27;;;;;;;;;;;;;;;;;;5084845;28;19923;-71
2023/03/30 13:28:53;;;;;;;;;;;;;;;;;;5086436;28;19916;-72
2023/03/30 13:31:18;;;;;;;;;;;;;;;;;;5085713;28;20001;-72
2023/03/30 13:33:44;;;;;;;;;;;;;;;;;;5083904;28;19971;-72
2023/03/30 13:36:09;;;;;;;;;;;;;;;;;;5086191;28;19916;-72
2023/03/30 13:38:34;;;;;;;;;;;;;;;;;;5066968;28;19959;-72
2023/03/30 13:41:00;;;;;;;;;;;;;;;;;;5086779;28;19973;-72
2023/03/30 13:43:25;;;;;;;;;;;;;;;;;;5069678;28;20400;-72
2023/03/30 13:45:50;;;;;;;;;;;;;;;;;;5087651;28;19916;-72
2023/03/30 13:48:15;;;;;;;;;;;;;;;;;;5087315;28;19934;-71
2023/03/30 13:50:41;;;;;;;;;;;;;;;;;;5087025;28;20383;-71
2023/03/30 13:53:06;;;;;;;;;;;;;;;;;;5087698;28;19922;-71
2023/03/30 13:55:31;;;;;;;;;;;;;;;;;;5087196;28;19969;-71
2023/03/30 13:57:56;;;;;;;;;;;;;;;;;;5087514;28;20509;-71
2023/03/30 14:00:22;;;;;;;;;;;;;;;;;;5087718;28;19918;-71
2023/03/30 14:02:48;;;;;;;;;;;;;;;;;;5087208;28;20405;-71
2023/03/30 14:05:16;;;;;;;;;;;;;;;;;;5088226;28;19916;-71
2023/03/30 14:07:45;;;;;;;;;;;;;;;;;;5089070;28;19919;-72
2023/03/30 14:10:10;;;;;;;;;;;;;;;;;;5088788;28;19992;-71
2023/03/30 14:12:35;;;;;;;;;;;;;;;;;;5089636;28;19955;-70
2023/03/30 14:15:01;;;;;;;;;;;;;;;;;;5089814;28;20040;-71
2023/03/30 14:17:26;;;;;;;;;;;;;;;;;;5092378;28;20352;-70
2023/03/30 14:19:51;;;;;;;;;;;;;;;;;;5090757;28;19961;-72
2023/03/30 14:22:17;;;;;;;;;;;;;;;;;;5090939;28;20006;-71
2023/03/30 14:24:42;;;;;;;;;;;;;;;;;;5090244;28;20359;-70
2023/03/30 14:27:07;;;;;;;;;;;;;;;;;;5090606;28;20367;-70
2023/03/30 14:29:32;;;;;;;;;;;;;;;;;;5090614;28;19959;-70
2023/03/30 14:31:58;;;;;;;;;;;;;;;;;;5091271;28;20314;-70
2023/03/30 14:34:24;;;;;;;;;;;;;;;;;;5089913;28;19915;-70
2023/03/30 14:36:49;;;;;;;;;;;;;;;;;;5084894;28;19947;-70
2023/03/30 14:39:14;;;;;;;;;;;;;;;;;;5088702;28;19951;-71
2023/03/30 14:41:40;;;;;;;;;;;;;;;;;;5090779;28;20282;-70
2023/03/30 14:44:05;;;;;;;;;;;;;;;;;;5088332;28;19919;-71
2023/03/30 14:46:30;;;;;;;;;;;;;;;;;;5090843;28;19944;-70
2023/03/30 14:48:55;;;;;;;;;;;;;;;;;;5090733;28;19912;-70
2023/03/30 14:51:22;;;;;;;;;;;;;;;;;;5090533;28;19912;-73
2023/03/30 14:53:47;;;;;;;;;;;;;;;;;;5072991;28;19912;-71
2023/03/30 14:56:12;;;;;;;;;;;;;;;;;;5083831;28;19948;-70
2023/03/30 14:58:38;;;;;;;;;;;;;;;;;;5082970;28;19923;-70
2023/03/30 15:01:05;;;;;;;;;;;;;;;;;;5083341;28;20002;-71
2023/03/30 15:03:30;;;;;;;;;;;;;;;;;;5089228;28;19908;-72
2023/03/30 15:05:55;;;;;;;;;;;;;;;;;;5073322;28;19934;-70
2023/03/30 15:08:21;;;;;;;;;;;;;;;;;;5090296;28;20321;-71
2023/03/30 15:10:46;;;;;;;;;;;;;;;;;;5090817;28;19912;-69
2023/03/30 15:13:11;;;;;;;;;;;;;;;;;;5090247;28;20347;-70
2023/03/30 15:15:37;;;;;;;;;;;;;;;;;;5072574;28;19911;-71
2023/03/30 15:18:02;;;;;;;;;;;;;;;;;;5090533;28;20049;-73
2023/03/30 15:20:28;;;;;;;;;;;;;;;;;;5089093;28;19916;-70
2023/03/30 15:22:53;;;;;;;;;;;;;;;;;;5090215;28;19920;-71
2023/03/30 15:25:18;;;;;;;;;;;;;;;;;;5090112;28;19967;-71
2023/03/30 15:27:43;;;;;;;;;;;;;;;;;;5089873;28;19920;-72
2023/03/30 15:30:09;;;;;;;;;;;;;;;;;;5071729;28;19923;-72
2023/03/30 15:32:35;;;;;;;;;;;;;;;;;;5082028;28;19920;-72
2023/03/30 15:35:00;;;;;;;;;;;;;;;;;;5081450;28;19915;-71
2023/03/30 15:37:25;;;;;;;;;;;;;;;;;;5054151;28;19932;-71
2023/03/30 15:39:50;;;;;;;;;;;;;;;;;;5066542;28;19916;-71
2023/03/30 15:42:16;;;;;;;;;;;;;;;;;;5067206;28;19947;-72
2023/03/30 15:44:41;;;;;;;;;;;;;;;;;;5069716;28;19913;-71
2023/03/30 15:47:06;;;;;;;;;;;;;;;;;;5077413;28;19923;-70
2023/03/30 15:49:32;;;;;;;;;;;;;;;;;;5089989;28;19916;-70
2023/03/30 15:51:58;;;;;;;;;;;;;;;;;;5089757;28;19920;-71
2023/03/30 15:54:23;;;;;;;;;;;;;;;;;;5089178;28;19916;-71
2023/03/30 15:56:48;;;;;;;;;;;;;;;;;;5086410;28;19915;-71
2023/03/30 15:59:14;;;;;;;;;;;;;;;;;;5086900;28;19915;-71
2023/03/30 16:01:39;;;;;;;;;;;;;;;;;;5087206;28;19973;-71
2023/03/30 16:04:05;;;;;;;;;;;;;;;;;;5083958;28;19970;-70
2023/03/30 16:06:30;;;;;;;;;;;;;;;;;;5071059;28;19958;-71
2023/03/30 16:08:55;;;;;;;;;;;;;;;;;;5067514;28;19912;-71
2023/03/30 16:11:21;;;;;;;;;;;;;;;;;;5072531;28;20045;-71
2023/03/30 16:13:46;;;;;;;;;;;;;;;;;;5078088;28;20341;-71
2023/03/30 16:16:16;;;;;;;;;;;;;;;;;;5069108;28;19920;-70
2023/03/30 16:18:42;;;;;;;;;;;;;;;;;;5045530;28;19912;-69
2023/03/30 16:21:09;;;;;;;;;;;;;;;;;;5077278;28;19938;-70
2023/03/30 16:23:35;;;;;;;;;;;;;;;;;;5086580;28;20012;-70
2023/03/30 16:26:00;;;;;;;;;;;;;;;;;;5084484;28;20025;-71
2023/03/30 16:28:29;;;;;;;;;;;;;;;;;;5040199;28;19916;-72
2023/03/30 16:30:57;;;;;;;;;;;;;;;;;;5049547;28;19912;-71
2023/03/30 16:33:23;;;;;;;;;;;;;;;;;;5069737;28;19912;-70
2023/03/30 16:35:48;;;;;;;;;;;;;;;;;;5073421;28;19923;-70
2023/03/30 16:38:15;;;;;;;;;;;;;;;;;;5085492;28;19931;-70
2023/03/30 16:40:40;;;;;;;;;;;;;;;;;;5085054;28;19912;-70
2023/03/30 16:43:05;;;;;;;;;;;;;;;;;;5089149;28;19934;-72
2023/03/30 16:45:31;;;;;;;;;;;;;;;;;;5069312;28;19916;-70
2023/03/30 16:47:56;;;;;;;;;;;;;;;;;;5083107;28;19915;-71
2023/03/30 16:50:21;;;;;;;;;;;;;;;;;;5087156;28;19912;-72
2023/03/30 16:52:47;;;;;;;;;;;;;;;;;;5086398;28;19912;-71
2023/03/30 16:55:12;;;;;;;;;;;;;;;;;;5086162;28;19915;-70